createdAt,value
2017-07-23T00:01:13.435Z,29.00
2017-07-23T00:03:41.028Z,29.00
2017-07-23T00:06:08.590Z,29.00
2017-07-23T00:08:36.178Z,29.00
2017-07-23T00:11:03.947Z,29.00
2017-07-23T00:13:31.505Z,29.00
2017-07-23T00:15:59.094Z,29.00
2017-07-23T00:20:55.624Z,29.00
2017-07-23T00:23:23.178Z,29.00
2017-07-23T00:25:50.790Z,29.00
2017-07-23T00:28:18.354Z,29.10
2017-07-23T00:30:46.331Z,29.00
2017-07-23T00:33:14.379Z,29.00
2017-07-23T00:35:41.974Z,29.00
2017-07-23T00:38:10.274Z,29.00
2017-07-23T00:40:39.542Z,29.00
2017-07-23T00:43:07.198Z,29.00
2017-07-23T00:45:34.762Z,29.00
2017-07-23T00:48:03.174Z,29.00
2017-07-23T00:50:31.530Z,29.00
2017-07-23T00:52:59.085Z,29.00
2017-07-23T00:55:26.679Z,29.00
2017-07-23T00:57:55.014Z,29.00
2017-07-23T01:00:22.610Z,29.00
2017-07-23T01:02:51.010Z,29.00
2017-07-23T01:05:19.091Z,28.90
2017-07-23T01:07:46.893Z,28.90
2017-07-23T01:10:15.426Z,28.80
2017-07-23T01:12:43.846Z,28.80
2017-07-23T01:15:12.334Z,28.80
2017-07-23T01:17:39.947Z,28.80
2017-07-23T01:20:08.713Z,28.80
2017-07-23T01:22:36.294Z,28.70
2017-07-23T01:25:04.266Z,28.70
2017-07-23T01:30:01.170Z,28.60
2017-07-23T01:32:28.803Z,28.60
2017-07-23T01:34:57.130Z,28.60
2017-07-23T01:37:24.698Z,28.60
2017-07-23T01:39:53.114Z,28.50
2017-07-23T01:42:20.954Z,28.60
2017-07-23T01:44:48.982Z,28.60
2017-07-23T01:47:16.615Z,28.60
2017-07-23T01:49:44.932Z,28.70
2017-07-23T01:52:12.534Z,28.70
2017-07-23T01:54:40.910Z,28.70
2017-07-23T01:57:09.335Z,28.70
2017-07-23T01:59:36.921Z,28.70
2017-07-23T02:02:04.546Z,28.70
2017-07-23T02:04:32.142Z,28.80
2017-07-23T02:06:59.734Z,28.80
2017-07-23T02:09:27.350Z,28.80
2017-07-23T02:11:54.938Z,28.80
2017-07-23T02:14:22.529Z,28.80
2017-07-23T02:16:50.594Z,28.80
2017-07-23T02:19:18.180Z,28.80
2017-07-23T02:21:45.770Z,28.70
2017-07-23T02:24:13.357Z,28.70
2017-07-23T02:26:40.947Z,28.70
2017-07-23T02:29:08.542Z,28.70
2017-07-23T02:31:36.163Z,28.70
2017-07-23T02:34:03.755Z,28.70
2017-07-23T02:36:31.318Z,28.70
2017-07-23T02:38:58.907Z,28.70
2017-07-23T02:41:26.470Z,28.70
2017-07-23T02:43:54.054Z,28.70
2017-07-23T02:46:21.642Z,28.70
2017-07-23T02:48:49.197Z,28.70
2017-07-23T02:51:16.786Z,28.70
2017-07-23T02:53:44.382Z,28.70
2017-07-23T02:56:11.946Z,28.60
2017-07-23T02:58:39.522Z,28.60
2017-07-23T03:01:09.348Z,28.60
2017-07-23T03:03:37.899Z,28.50
2017-07-23T03:06:09.366Z,28.50
2017-07-23T03:08:37.490Z,28.40
2017-07-23T03:11:06.285Z,28.50
2017-07-23T03:13:34.466Z,28.40
2017-07-23T03:16:05.901Z,28.40
2017-07-23T03:18:34.813Z,28.40
2017-07-23T03:21:03.934Z,28.50
2017-07-23T03:23:32.746Z,28.50
2017-07-23T03:26:01.262Z,28.50
2017-07-23T03:28:29.801Z,28.50
2017-07-23T03:30:59.772Z,28.50
2017-07-23T03:33:27.334Z,28.50
2017-07-23T03:35:55.285Z,28.50
2017-07-23T03:38:22.842Z,28.40
2017-07-23T03:40:51.187Z,28.30
2017-07-23T03:43:18.778Z,28.30
2017-07-23T03:45:47.141Z,28.20
2017-07-23T03:48:14.738Z,28.20
2017-07-23T03:50:43.140Z,28.30
2017-07-23T03:53:10.727Z,28.20
2017-07-23T03:55:39.022Z,28.20
2017-07-23T03:58:06.621Z,28.10
2017-07-23T04:00:34.934Z,28.10
2017-07-23T04:03:02.502Z,28.10
2017-07-23T04:05:30.927Z,28.20
2017-07-23T04:07:59.282Z,28.20
2017-07-23T04:10:26.890Z,28.10
2017-07-23T04:12:55.137Z,28.20
2017-07-23T04:15:22.734Z,28.10
2017-07-23T04:17:50.296Z,28.10
2017-07-23T04:20:17.930Z,28.10
2017-07-23T04:22:45.494Z,28.00
2017-07-23T04:25:13.061Z,28.00
2017-07-23T04:27:40.675Z,28.00
2017-07-23T04:30:08.258Z,28.00
2017-07-23T04:32:35.818Z,27.90
2017-07-23T04:35:03.437Z,27.90
2017-07-23T04:37:31.022Z,28.00
2017-07-23T04:39:58.618Z,28.00
2017-07-23T04:42:26.230Z,27.90
2017-07-23T04:44:53.822Z,28.00
2017-07-23T04:47:21.390Z,28.10
2017-07-23T04:49:49.006Z,28.20
2017-07-23T04:52:16.602Z,28.20
2017-07-23T04:54:44.195Z,28.20
2017-07-23T04:57:11.810Z,28.30
2017-07-23T04:59:39.399Z,28.30
2017-07-23T05:02:07.638Z,28.30
2017-07-23T05:04:35.966Z,28.30
2017-07-23T05:07:03.557Z,28.30
2017-07-23T05:09:31.131Z,28.30
2017-07-23T05:11:58.726Z,28.30
2017-07-23T05:14:26.308Z,28.30
2017-07-23T05:16:53.898Z,28.30
2017-07-23T05:19:21.514Z,28.30
2017-07-23T05:21:49.190Z,28.30
2017-07-23T05:24:16.774Z,28.30
2017-07-23T05:26:45.190Z,28.30
2017-07-23T05:29:13.005Z,28.30
2017-07-23T05:31:40.617Z,28.30
2017-07-23T05:34:08.218Z,28.40
2017-07-23T05:36:36.010Z,28.40
2017-07-23T05:39:03.690Z,28.30
2017-07-23T05:41:31.946Z,28.40
2017-07-23T05:43:59.510Z,28.30
2017-07-23T05:46:27.882Z,28.30
2017-07-23T05:48:55.512Z,28.30
2017-07-23T05:51:23.834Z,28.30
2017-07-23T05:53:52.278Z,28.40
2017-07-23T05:56:19.870Z,28.40
2017-07-23T05:58:48.242Z,28.40
2017-07-23T06:01:15.838Z,28.40
2017-07-23T06:03:44.186Z,28.40
2017-07-23T06:06:11.775Z,28.40
2017-07-23T06:08:40.093Z,28.40
2017-07-23T06:11:07.734Z,28.50
2017-07-23T06:13:36.054Z,28.50
2017-07-23T06:16:03.720Z,28.50
2017-07-23T06:18:32.066Z,28.50
2017-07-23T06:20:59.634Z,28.60
2017-07-23T06:23:27.938Z,28.60
2017-07-23T06:25:56.297Z,28.60
2017-07-23T06:28:24.890Z,28.50
2017-07-23T06:30:52.482Z,28.50
2017-07-23T06:33:20.834Z,28.60
2017-07-23T06:35:48.426Z,28.50
2017-07-23T06:38:15.986Z,28.60
2017-07-23T06:40:43.602Z,28.50
2017-07-23T06:43:11.190Z,28.50
2017-07-23T06:45:45.267Z,28.50
2017-07-23T06:48:12.911Z,28.30
2017-07-23T06:50:40.474Z,28.40
2017-07-23T06:53:08.030Z,28.40
2017-07-23T06:55:35.962Z,28.40
2017-07-23T06:58:03.558Z,28.50
2017-07-23T07:00:31.150Z,28.50
2017-07-23T07:02:58.758Z,28.50
2017-07-23T07:05:26.347Z,28.50
2017-07-23T07:07:53.947Z,28.50
2017-07-23T07:10:21.570Z,28.50
2017-07-23T07:12:50.342Z,28.60
2017-07-23T07:15:17.947Z,28.50
2017-07-23T07:17:45.562Z,28.50
2017-07-23T07:20:13.122Z,28.50
2017-07-23T07:22:40.714Z,28.60
2017-07-23T07:25:08.331Z,28.60
2017-07-23T07:27:35.922Z,28.70
2017-07-23T07:30:03.503Z,28.70
2017-07-23T07:32:31.090Z,28.60
2017-07-23T07:34:59.306Z,28.50
2017-07-23T07:37:26.942Z,28.50
2017-07-23T07:39:54.534Z,28.50
2017-07-23T07:42:22.657Z,28.50
2017-07-23T07:44:50.230Z,28.50
2017-07-23T07:47:17.847Z,28.60
2017-07-23T07:49:45.422Z,28.60
2017-07-23T07:52:13.005Z,28.60
2017-07-23T07:54:41.266Z,28.70
2017-07-23T07:57:09.269Z,28.70
2017-07-23T07:59:36.860Z,28.70
2017-07-23T08:02:04.461Z,28.70
2017-07-23T08:04:32.055Z,28.70
2017-07-23T08:06:59.642Z,28.70
2017-07-23T08:09:27.246Z,28.70
2017-07-23T08:11:54.830Z,28.70
2017-07-23T08:14:22.395Z,28.70
2017-07-23T08:16:49.986Z,28.70
2017-07-23T08:19:17.817Z,28.70
2017-07-23T08:21:45.827Z,28.70
2017-07-23T08:24:13.816Z,28.70
2017-07-23T08:26:41.406Z,28.70
2017-07-23T08:29:09.722Z,28.80
2017-07-23T08:31:38.242Z,28.80
2017-07-23T08:34:05.810Z,28.70
2017-07-23T08:36:34.110Z,28.80
2017-07-23T08:39:01.726Z,28.80
2017-07-23T08:41:30.126Z,28.80
2017-07-23T08:43:57.899Z,28.80
2017-07-23T08:46:26.018Z,28.80
2017-07-23T08:48:53.602Z,28.80
2017-07-23T08:51:21.962Z,28.80
2017-07-23T08:53:50.342Z,28.80
2017-07-23T08:56:17.930Z,28.80
2017-07-23T08:58:45.733Z,28.80
2017-07-23T09:01:13.866Z,28.80
2017-07-23T09:03:41.430Z,28.80
2017-07-23T09:06:10.732Z,28.80
2017-07-23T09:08:38.350Z,28.80
2017-07-23T09:11:14.338Z,28.80
2017-07-23T09:13:41.972Z,28.80
2017-07-23T09:16:10.461Z,28.80
2017-07-23T09:18:38.830Z,28.80
2017-07-23T09:21:06.823Z,28.80
2017-07-23T09:23:36.267Z,28.80
2017-07-23T09:26:06.446Z,28.90
2017-07-23T09:28:36.227Z,28.80
2017-07-23T09:31:21.166Z,28.90
2017-07-23T09:33:49.740Z,28.90
2017-07-23T09:36:18.212Z,28.90
2017-07-23T09:38:47.119Z,28.80
2017-07-23T09:41:17.133Z,28.90
2017-07-23T09:43:44.728Z,28.90
2017-07-23T09:46:13.104Z,28.90
2017-07-23T09:48:40.738Z,28.90
2017-07-23T09:51:09.038Z,28.90
2017-07-23T09:53:36.625Z,29.00
2017-07-23T09:56:05.662Z,29.00
2017-07-23T09:58:34.127Z,29.00
2017-07-23T10:01:02.938Z,29.00
2017-07-23T10:03:30.551Z,29.00
2017-07-23T10:06:00.473Z,29.10
2017-07-23T10:08:28.322Z,29.00
2017-07-23T10:10:56.217Z,29.00
2017-07-23T10:13:27.866Z,29.00
2017-07-23T10:15:55.458Z,29.00
2017-07-23T10:18:25.370Z,29.00
2017-07-23T10:20:52.974Z,29.00
2017-07-23T10:23:20.557Z,29.10
2017-07-23T10:25:48.912Z,29.10
2017-07-23T10:28:16.506Z,29.10
2017-07-23T10:30:44.089Z,29.10
2017-07-23T10:33:11.720Z,29.10
2017-07-23T10:35:39.370Z,29.10
2017-07-23T10:38:06.935Z,29.20
2017-07-23T10:40:34.802Z,29.20
2017-07-23T10:43:10.166Z,29.20
2017-07-23T10:45:37.791Z,29.20
2017-07-23T10:48:06.454Z,29.20
2017-07-23T10:50:34.446Z,29.20
2017-07-23T10:53:02.074Z,29.20
2017-07-23T10:55:29.633Z,29.20
2017-07-23T10:57:57.238Z,29.30
2017-07-23T11:00:24.875Z,29.40
2017-07-23T11:02:52.439Z,29.40
2017-07-23T11:05:20.002Z,29.40
2017-07-23T11:07:47.700Z,29.30
2017-07-23T11:10:15.270Z,29.30
2017-07-23T11:12:42.858Z,29.20
2017-07-23T11:15:10.474Z,29.30
2017-07-23T11:17:38.243Z,29.20
2017-07-23T11:20:05.810Z,29.20
2017-07-23T11:22:33.398Z,29.20
2017-07-23T11:25:00.958Z,29.20
2017-07-23T11:27:28.522Z,29.20
2017-07-23T11:29:56.134Z,29.20
2017-07-23T11:32:23.733Z,29.20
2017-07-23T11:34:51.323Z,29.20
2017-07-23T11:37:19.014Z,29.20
2017-07-23T11:39:46.579Z,29.20
2017-07-23T11:42:14.176Z,29.10
2017-07-23T11:44:41.778Z,29.10
2017-07-23T11:47:09.407Z,29.10
2017-07-23T11:49:36.981Z,29.10
2017-07-23T11:52:04.578Z,29.10
2017-07-23T11:54:32.163Z,29.10
2017-07-23T11:56:59.951Z,29.10
2017-07-23T11:59:27.567Z,29.10
2017-07-23T12:01:55.130Z,29.10
2017-07-23T12:04:22.714Z,29.10
2017-07-23T12:06:50.330Z,29.10
2017-07-23T12:09:17.922Z,29.10
2017-07-23T12:11:45.510Z,29.10
2017-07-23T12:14:13.132Z,29.10
2017-07-23T12:16:40.699Z,29.10
2017-07-23T12:19:08.258Z,29.10
2017-07-23T12:21:35.885Z,29.10
2017-07-23T12:24:03.478Z,29.00
2017-07-23T12:26:31.046Z,29.10
2017-07-23T12:28:58.633Z,29.10
2017-07-23T12:31:26.218Z,29.10
2017-07-23T12:33:53.809Z,29.10
2017-07-23T12:36:21.402Z,29.10
2017-07-23T12:38:48.958Z,29.10
2017-07-23T12:41:16.523Z,29.00
2017-07-23T12:43:44.118Z,29.10
2017-07-23T12:46:11.704Z,29.10
2017-07-23T12:48:39.270Z,29.10
2017-07-23T12:51:07.066Z,29.00
2017-07-23T12:53:34.626Z,29.10
2017-07-23T12:56:02.187Z,29.00
2017-07-23T12:58:29.798Z,29.00
2017-07-23T13:00:57.370Z,29.10
2017-07-23T13:03:24.943Z,29.10
2017-07-23T13:05:52.538Z,29.00
2017-07-23T13:08:20.154Z,29.00
2017-07-23T13:10:47.719Z,29.00
2017-07-23T13:13:15.318Z,29.10
2017-07-23T13:15:43.670Z,29.10
2017-07-23T13:18:11.234Z,29.00
2017-07-23T13:20:38.830Z,29.00
2017-07-23T13:23:06.428Z,29.00
2017-07-23T13:25:34.018Z,29.00
2017-07-23T13:28:01.634Z,29.00
2017-07-23T13:30:29.202Z,29.10
2017-07-23T13:32:56.813Z,29.00
2017-07-23T13:35:24.450Z,29.00
2017-07-23T13:37:52.042Z,29.00
2017-07-23T13:40:19.667Z,29.00
2017-07-23T13:42:47.265Z,29.10
2017-07-23T13:45:14.833Z,29.00
2017-07-23T13:47:42.423Z,29.00
2017-07-23T13:50:10.051Z,29.10
2017-07-23T13:52:37.686Z,29.00
2017-07-23T13:55:06.043Z,29.00
2017-07-23T13:57:33.662Z,29.00
2017-07-23T14:00:01.258Z,29.10
2017-07-23T14:02:28.852Z,29.00
2017-07-23T14:04:56.471Z,29.10
2017-07-23T14:07:24.047Z,29.00
2017-07-23T14:09:51.607Z,29.00
2017-07-23T14:12:19.228Z,29.00
2017-07-23T14:14:46.804Z,29.10
2017-07-23T14:17:14.390Z,29.10
2017-07-23T14:19:42.007Z,29.10
2017-07-23T14:22:09.592Z,29.00
2017-07-23T14:24:37.182Z,29.10
2017-07-23T14:27:04.802Z,29.10
2017-07-23T14:29:32.395Z,29.00
2017-07-23T14:31:59.962Z,29.00
2017-07-23T14:34:27.567Z,29.00
2017-07-23T14:36:55.142Z,29.00
2017-07-23T14:39:22.705Z,29.10
2017-07-23T14:41:50.327Z,29.10
2017-07-23T14:44:17.931Z,29.00
2017-07-23T14:46:45.526Z,29.10
2017-07-23T14:49:13.122Z,29.00
2017-07-23T14:51:40.678Z,29.10
2017-07-23T14:54:08.279Z,29.10
2017-07-23T14:56:35.912Z,29.10
2017-07-23T14:59:03.512Z,29.10
2017-07-23T15:01:31.098Z,29.10
2017-07-23T15:03:58.734Z,29.10
2017-07-23T15:06:26.298Z,29.10
2017-07-23T15:08:53.887Z,29.10
2017-07-23T15:11:21.650Z,29.00
2017-07-23T15:13:49.218Z,29.10
2017-07-23T15:16:16.774Z,29.10
2017-07-23T15:18:45.354Z,29.10
2017-07-23T15:21:13.760Z,29.00
2017-07-23T15:23:41.331Z,29.10
2017-07-23T15:26:08.955Z,29.10
2017-07-23T15:28:36.562Z,29.10
2017-07-23T15:31:05.870Z,29.10
2017-07-23T15:33:34.559Z,29.00
2017-07-23T15:36:02.727Z,29.10
2017-07-23T15:38:30.325Z,29.10
2017-07-23T15:40:59.046Z,29.10
2017-07-23T15:43:26.638Z,29.10
2017-07-23T15:45:56.897Z,29.10
2017-07-23T15:48:26.761Z,29.00
2017-07-23T15:50:55.035Z,29.10
2017-07-23T15:53:22.686Z,29.10
2017-07-23T15:55:51.467Z,29.00
2017-07-23T15:58:20.411Z,29.00
2017-07-23T16:00:48.018Z,29.00
2017-07-23T16:03:15.635Z,29.00
2017-07-23T16:05:43.252Z,28.90
2017-07-23T16:08:10.842Z,28.90
2017-07-23T16:10:39.949Z,28.80
2017-07-23T16:13:07.548Z,28.80
2017-07-23T16:15:35.216Z,28.80
2017-07-23T16:18:02.810Z,28.80
2017-07-23T16:20:30.403Z,28.80
2017-07-23T16:22:58.272Z,28.80
2017-07-23T16:25:25.902Z,28.70
2017-07-23T16:27:53.495Z,28.70
2017-07-23T16:30:21.488Z,28.70
2017-07-23T16:32:49.389Z,28.70
2017-07-23T16:35:17.507Z,28.70
2017-07-23T16:37:45.786Z,28.70
2017-07-23T16:40:13.991Z,28.70
2017-07-23T16:42:42.402Z,28.70
2017-07-23T16:45:10.769Z,28.70
2017-07-23T16:47:38.862Z,28.70
2017-07-23T16:50:08.831Z,28.60
2017-07-23T16:52:38.336Z,28.70
2017-07-23T16:55:08.865Z,28.70
2017-07-23T16:57:37.771Z,28.70
2017-07-23T17:00:06.284Z,28.70
2017-07-23T17:02:34.887Z,28.70
2017-07-23T17:05:03.309Z,28.70
2017-07-23T17:07:33.135Z,28.90
2017-07-23T17:10:02.738Z,28.90
2017-07-23T17:12:31.235Z,29.00
2017-07-23T17:14:58.887Z,29.00
2017-07-23T17:17:27.962Z,28.90
2017-07-23T17:19:56.746Z,28.90
2017-07-23T17:22:25.083Z,28.90
2017-07-23T17:24:53.375Z,28.90
2017-07-23T17:27:21.499Z,29.00
2017-07-23T17:29:50.665Z,29.00
2017-07-23T17:32:20.173Z,29.00
2017-07-23T17:34:48.659Z,28.90
2017-07-23T17:37:17.689Z,28.90
2017-07-23T17:39:45.692Z,28.90
2017-07-23T17:42:13.722Z,28.90
2017-07-23T17:44:41.690Z,28.90
2017-07-23T17:47:10.033Z,28.90
2017-07-23T17:49:38.512Z,28.80
2017-07-23T17:52:06.141Z,28.80
2017-07-23T17:54:33.774Z,28.90
2017-07-23T17:57:01.378Z,28.90
2017-07-23T17:59:28.958Z,28.90
2017-07-23T18:01:56.881Z,28.90
2017-07-23T18:04:27.043Z,28.90
2017-07-23T18:06:55.107Z,28.90
2017-07-23T18:09:25.578Z,28.90
2017-07-23T18:11:55.990Z,28.90
2017-07-23T18:14:25.332Z,28.90
2017-07-23T18:16:54.549Z,28.90
2017-07-23T18:19:24.024Z,28.90
2017-07-23T18:21:51.729Z,28.90
2017-07-23T18:24:19.814Z,28.90
2017-07-23T18:26:48.469Z,28.90
2017-07-23T18:29:16.784Z,29.00
2017-07-23T18:31:45.535Z,29.00
2017-07-23T18:34:13.218Z,29.00
2017-07-23T18:36:40.841Z,29.10
2017-07-23T18:39:08.741Z,29.10
2017-07-23T18:41:36.370Z,29.10
2017-07-23T18:44:06.673Z,29.10
2017-07-23T18:46:35.313Z,29.20
2017-07-23T18:49:02.955Z,29.20
2017-07-23T18:51:32.322Z,29.20
2017-07-23T18:53:59.954Z,29.20
2017-07-23T18:56:27.570Z,29.20
2017-07-23T18:58:55.290Z,29.20
2017-07-23T19:01:22.906Z,29.10
2017-07-23T19:03:50.499Z,29.10
2017-07-23T19:06:18.099Z,29.10
2017-07-23T19:08:45.771Z,29.20
2017-07-23T19:11:13.367Z,29.20
2017-07-23T19:13:40.954Z,29.20
2017-07-23T19:16:09.193Z,29.30
2017-07-23T19:18:38.698Z,29.20
2017-07-23T19:21:06.340Z,29.20
2017-07-23T19:23:34.033Z,29.20
2017-07-23T19:26:01.659Z,29.30
2017-07-23T19:28:29.255Z,29.30
2017-07-23T19:30:56.863Z,29.30
2017-07-23T19:33:24.463Z,29.30
2017-07-23T19:35:52.035Z,29.30
2017-07-23T19:38:19.634Z,29.30
2017-07-23T19:40:49.718Z,29.30
2017-07-23T19:43:17.322Z,29.30
2017-07-23T19:45:55.603Z,29.30
2017-07-23T19:48:25.092Z,29.20
2017-07-23T19:50:54.598Z,29.30
2017-07-23T19:53:22.232Z,29.20
2017-07-23T19:55:52.586Z,29.30
2017-07-23T19:58:21.318Z,31.90
2017-07-23T20:00:48.934Z,29.20
2017-07-23T20:03:17.005Z,29.20
2017-07-23T20:05:45.283Z,29.20
2017-07-23T20:08:14.046Z,29.20
2017-07-23T20:11:08.561Z,29.20
2017-07-23T20:13:40.616Z,29.20
2017-07-23T20:16:08.206Z,29.20
2017-07-23T20:18:35.802Z,29.20
2017-07-23T20:21:04.012Z,29.20
2017-07-23T20:23:31.607Z,29.20
2017-07-23T20:25:59.194Z,29.10
2017-07-23T20:28:26.809Z,29.10
2017-07-23T20:30:55.915Z,29.10
2017-07-23T20:33:23.580Z,29.10
2017-07-23T20:35:52.237Z,29.20
2017-07-23T20:38:20.316Z,29.20
2017-07-23T20:40:47.918Z,29.20
2017-07-23T20:43:16.565Z,29.20
2017-07-23T20:45:44.959Z,29.20
2017-07-23T20:48:12.541Z,29.20
2017-07-23T20:50:42.032Z,29.20
2017-07-23T20:53:10.262Z,29.10
2017-07-23T20:55:37.878Z,29.20
2017-07-23T20:58:06.612Z,29.10
2017-07-23T21:00:34.967Z,29.10
2017-07-23T21:03:02.621Z,29.10
2017-07-23T21:05:30.398Z,29.10
2017-07-23T21:07:58.716Z,29.10
2017-07-23T21:10:26.328Z,29.10
2017-07-23T21:12:54.012Z,29.10
2017-07-23T21:15:22.545Z,29.10
2017-07-23T21:17:51.367Z,29.10
2017-07-23T21:20:19.609Z,29.10
2017-07-23T21:22:47.206Z,29.10
2017-07-23T21:25:14.867Z,29.10
2017-07-23T21:27:43.085Z,29.10
2017-07-23T21:30:10.697Z,29.10
2017-07-23T21:32:39.021Z,29.10
2017-07-23T21:35:08.462Z,29.10
2017-07-23T21:37:36.090Z,29.10
2017-07-23T21:40:03.690Z,29.10
2017-07-23T21:42:31.323Z,29.00
2017-07-23T21:44:58.948Z,29.00
2017-07-23T21:47:26.550Z,29.10
2017-07-23T21:49:54.275Z,29.10
2017-07-23T21:52:21.894Z,29.10
2017-07-23T21:54:49.466Z,29.10
2017-07-23T21:57:17.282Z,29.10
2017-07-23T21:59:44.923Z,29.10
2017-07-23T22:02:12.521Z,29.00
2017-07-23T22:04:40.134Z,29.10
2017-07-23T22:07:08.462Z,29.10
2017-07-23T22:09:36.050Z,29.10
2017-07-23T22:12:03.658Z,29.10
2017-07-23T22:14:32.745Z,29.00
2017-07-23T22:17:00.367Z,29.00
2017-07-23T22:19:29.224Z,29.00
2017-07-23T22:21:57.036Z,29.00
2017-07-23T22:24:24.666Z,29.00
2017-07-23T22:26:52.437Z,29.00
2017-07-23T22:29:20.427Z,29.00
2017-07-23T22:31:48.023Z,29.00
2017-07-23T22:34:15.694Z,29.00
2017-07-23T22:39:16.182Z,29.00
2017-07-23T22:41:43.811Z,29.00
2017-07-23T22:44:12.336Z,29.00
2017-07-23T22:46:41.311Z,29.00
2017-07-23T22:49:08.948Z,29.00
2017-07-23T22:51:37.061Z,29.00
2017-07-23T22:54:05.005Z,29.00
2017-07-23T22:56:32.642Z,29.10
2017-07-23T22:59:00.642Z,29.10
2017-07-23T23:01:28.245Z,29.00
2017-07-23T23:03:56.050Z,29.10
2017-07-23T23:06:23.674Z,29.00
2017-07-23T23:08:51.278Z,29.10
2017-07-23T23:11:19.330Z,29.10
2017-07-23T23:13:46.931Z,29.10
2017-07-23T23:16:15.487Z,29.10
2017-07-23T23:18:43.168Z,29.10
2017-07-23T23:21:11.351Z,29.10
2017-07-23T23:23:38.939Z,29.10
2017-07-23T23:26:06.736Z,29.10
2017-07-23T23:28:34.850Z,29.10
2017-07-23T23:31:02.446Z,29.10
2017-07-23T23:33:30.054Z,29.10
2017-07-23T23:35:57.622Z,29.10
2017-07-23T23:38:25.194Z,29.10
2017-07-23T23:40:52.783Z,29.10
2017-07-23T23:43:20.394Z,29.10
2017-07-23T23:45:48.002Z,29.20
2017-07-23T23:48:15.618Z,29.10
2017-07-23T23:50:43.206Z,29.20
2017-07-23T23:53:10.770Z,29.10
2017-07-23T23:55:38.383Z,29.20
2017-07-23T23:58:05.975Z,29.20
